createdAt,value
2018-03-26T00:01:34.203Z,39.33
2018-03-26T00:04:01.664Z,33.70
2018-03-26T00:06:29.096Z,36.70
2018-03-26T00:08:56.550Z,35.63
2018-03-26T00:11:24.040Z,36.60
2018-03-26T00:13:51.540Z,35.27
2018-03-26T00:16:19.085Z,34.57
2018-03-26T00:18:46.519Z,38.13
2018-03-26T00:21:13.976Z,37.83
2018-03-26T00:23:41.415Z,34.90
2018-03-26T00:26:08.882Z,32.87
2018-03-26T00:28:36.299Z,34.53
2018-03-26T00:31:03.757Z,33.70
2018-03-26T00:33:31.206Z,32.20
2018-03-26T00:35:58.658Z,30.13
2018-03-26T00:38:26.084Z,36.57
2018-03-26T00:40:53.549Z,33.30
2018-03-26T00:43:20.962Z,31.77
2018-03-26T00:45:48.392Z,31.87
2018-03-26T00:48:15.861Z,35.90
2018-03-26T00:50:43.462Z,32.77
2018-03-26T00:53:11.041Z,35.70
2018-03-26T00:55:38.489Z,33.17
2018-03-26T00:58:05.954Z,34.33
2018-03-26T01:00:33.383Z,32.60
2018-03-26T01:03:01.569Z,34.00
2018-03-26T01:05:29.037Z,33.77
2018-03-26T01:07:56.503Z,32.77
2018-03-26T01:10:23.943Z,35.07
2018-03-26T01:12:51.389Z,38.57
2018-03-26T01:15:18.806Z,36.67
2018-03-26T01:17:46.290Z,33.43
2018-03-26T01:20:13.765Z,31.13
2018-03-26T01:22:41.226Z,32.30
2018-03-26T01:25:08.679Z,33.30
2018-03-26T01:27:36.141Z,33.37
2018-03-26T01:30:03.596Z,34.70
2018-03-26T01:32:31.026Z,31.07
2018-03-26T01:34:58.492Z,32.87
2018-03-26T01:37:25.969Z,33.57
2018-03-26T01:39:53.434Z,29.93
2018-03-26T01:42:20.890Z,36.03
2018-03-26T01:44:48.349Z,33.23
2018-03-26T01:47:15.770Z,32.00
2018-03-26T01:49:43.336Z,31.23
2018-03-26T01:52:10.754Z,29.97
2018-03-26T01:54:38.185Z,30.67
2018-03-26T01:57:06.376Z,32.17
2018-03-26T01:59:33.803Z,33.93
2018-03-26T02:02:01.269Z,37.57
2018-03-26T02:04:28.795Z,34.30
2018-03-26T02:06:56.239Z,34.17
2018-03-26T02:09:24.532Z,34.53
2018-03-26T02:11:52.082Z,34.57
2018-03-26T02:14:19.770Z,33.07
2018-03-26T02:16:47.305Z,35.50
2018-03-26T02:19:14.766Z,38.43
2018-03-26T02:21:42.182Z,36.63
2018-03-26T02:24:09.640Z,36.53
2018-03-26T02:26:37.128Z,34.80
2018-03-26T02:29:04.561Z,32.80
2018-03-26T02:31:32.002Z,39.80
2018-03-26T02:33:59.461Z,31.40
2018-03-26T02:36:26.901Z,35.00
2018-03-26T02:38:54.338Z,38.53
2018-03-26T02:41:21.898Z,40.10
2018-03-26T02:43:49.357Z,37.93
2018-03-26T02:46:16.776Z,42.17
2018-03-26T02:48:44.211Z,34.40
2018-03-26T02:51:11.720Z,35.87
2018-03-26T02:53:39.226Z,36.20
2018-03-26T02:56:06.676Z,37.90
2018-03-26T02:58:34.124Z,40.97
2018-03-26T03:01:01.604Z,40.50
2018-03-26T03:03:29.059Z,34.97
2018-03-26T03:05:56.528Z,40.73
2018-03-26T03:08:23.956Z,31.47
2018-03-26T03:10:51.414Z,39.33
2018-03-26T03:13:18.850Z,39.93
2018-03-26T03:15:46.312Z,36.50
2018-03-26T03:18:13.802Z,34.40
2018-03-26T03:20:41.294Z,37.30
2018-03-26T03:23:08.779Z,33.03
2018-03-26T03:25:36.312Z,40.53
2018-03-26T03:28:03.768Z,36.20
2018-03-26T03:30:31.207Z,41.37
2018-03-26T03:32:58.635Z,36.07
2018-03-26T03:35:26.246Z,36.23
2018-03-26T03:37:53.846Z,33.90
2018-03-26T03:40:21.279Z,36.43
2018-03-26T03:42:48.728Z,31.77
2018-03-26T03:45:16.900Z,37.17
2018-03-26T03:47:44.334Z,39.20
2018-03-26T03:50:11.793Z,35.97
2018-03-26T03:52:39.233Z,34.20
2018-03-26T03:55:06.742Z,35.57
2018-03-26T03:57:34.324Z,38.47
2018-03-26T04:00:01.749Z,34.83
2018-03-26T04:02:29.230Z,39.33
2018-03-26T04:04:56.688Z,32.60
2018-03-26T04:07:24.144Z,38.27
2018-03-26T04:09:51.580Z,37.10
2018-03-26T04:12:19.039Z,38.50
2018-03-26T04:14:46.552Z,40.43
2018-03-26T04:17:14.273Z,31.23
2018-03-26T04:19:41.779Z,37.00
2018-03-26T04:22:09.361Z,36.70
2018-03-26T04:24:36.921Z,36.03
2018-03-26T04:27:04.586Z,37.37
2018-03-26T04:29:32.027Z,36.97
2018-03-26T04:31:59.478Z,36.60
2018-03-26T04:34:27.097Z,35.83
2018-03-26T04:36:54.660Z,34.57
2018-03-26T04:39:22.099Z,37.63
2018-03-26T04:41:49.532Z,32.87
2018-03-26T04:44:16.989Z,32.93
2018-03-26T04:46:44.423Z,43.97
2018-03-26T04:49:11.879Z,37.73
2018-03-26T04:51:41.070Z,39.83
2018-03-26T04:54:08.885Z,44.93
2018-03-26T04:56:36.384Z,37.23
2018-03-26T04:59:03.848Z,41.83
2018-03-26T05:01:31.271Z,39.27
2018-03-26T05:03:58.727Z,42.33
2018-03-26T05:06:26.313Z,45.90
2018-03-26T05:08:53.769Z,40.90
2018-03-26T05:11:21.227Z,43.17
2018-03-26T05:13:48.660Z,41.83
2018-03-26T05:16:16.113Z,40.70
2018-03-26T05:18:43.566Z,40.30
2018-03-26T05:21:11.078Z,37.17
2018-03-26T05:23:38.560Z,41.00
2018-03-26T05:26:06.039Z,41.00
2018-03-26T05:28:33.470Z,37.30
2018-03-26T05:31:01.139Z,40.87
2018-03-26T05:33:29.462Z,36.70
2018-03-26T05:35:57.030Z,38.67
2018-03-26T05:38:24.619Z,40.10
2018-03-26T05:40:52.224Z,40.47
2018-03-26T05:43:19.855Z,37.07
2018-03-26T05:45:47.287Z,37.10
2018-03-26T05:48:15.288Z,43.10
2018-03-26T05:50:43.985Z,48.67
2018-03-26T05:53:11.446Z,43.80
2018-03-26T05:55:38.876Z,36.50
2018-03-26T05:58:06.412Z,35.70
2018-03-26T06:00:33.931Z,39.50
2018-03-26T06:03:01.411Z,41.83
2018-03-26T06:05:28.856Z,37.43
2018-03-26T06:07:56.298Z,37.57
2018-03-26T06:10:23.899Z,43.10
2018-03-26T06:12:51.340Z,39.63
2018-03-26T06:15:18.857Z,37.97
2018-03-26T06:17:46.308Z,40.87
2018-03-26T06:20:13.912Z,40.23
2018-03-26T06:22:41.340Z,36.00
2018-03-26T06:25:08.793Z,36.07
2018-03-26T06:27:36.227Z,38.83
2018-03-26T06:30:03.781Z,36.50
2018-03-26T06:32:31.231Z,37.90
2018-03-26T06:34:58.647Z,37.40
2018-03-26T06:37:31.624Z,44.43
2018-03-26T06:39:59.076Z,43.97
2018-03-26T06:42:26.537Z,42.77
2018-03-26T06:44:54.011Z,38.77
2018-03-26T06:47:21.449Z,40.67
2018-03-26T06:49:48.882Z,36.47
2018-03-26T06:52:16.340Z,41.63
2018-03-26T06:54:43.807Z,39.37
2018-03-26T06:57:11.606Z,40.23
2018-03-26T06:59:39.367Z,45.03
2018-03-26T07:02:06.883Z,42.67
2018-03-26T07:04:34.314Z,42.03
2018-03-26T07:07:01.767Z,40.57
2018-03-26T07:09:29.225Z,44.77
2018-03-26T07:11:56.699Z,43.90
2018-03-26T07:14:24.308Z,39.80
2018-03-26T07:16:51.746Z,43.13
2018-03-26T07:19:19.199Z,39.80
2018-03-26T07:21:46.617Z,43.50
2018-03-26T07:24:14.067Z,43.20
2018-03-26T07:26:41.511Z,44.57
2018-03-26T07:29:08.967Z,40.30
2018-03-26T07:31:36.471Z,43.37
2018-03-26T07:34:03.927Z,42.93
2018-03-26T07:36:31.560Z,42.37
2018-03-26T07:38:59.045Z,42.90
2018-03-26T07:41:26.500Z,44.33
2018-03-26T07:43:53.979Z,41.07
2018-03-26T07:46:21.464Z,44.00
2018-03-26T07:48:48.973Z,47.27
2018-03-26T07:51:16.823Z,40.73
2018-03-26T07:53:44.257Z,45.50
2018-03-26T07:56:11.766Z,48.27
2018-03-26T07:58:39.210Z,42.70
2018-03-26T08:01:06.712Z,46.73
2018-03-26T08:03:34.234Z,43.90
2018-03-26T08:06:01.656Z,42.10
2018-03-26T08:08:29.763Z,43.13
2018-03-26T08:10:57.250Z,42.40
2018-03-26T08:13:24.806Z,43.87
2018-03-26T08:15:52.562Z,46.13
2018-03-26T08:18:20.060Z,42.60
2018-03-26T08:20:47.521Z,42.30
2018-03-26T08:23:14.979Z,44.90
2018-03-26T08:25:42.442Z,48.50
2018-03-26T08:28:09.905Z,49.03
2018-03-26T08:30:37.369Z,47.57
2018-03-26T08:33:04.843Z,43.20
2018-03-26T08:35:32.275Z,45.20
2018-03-26T08:37:59.776Z,51.80
2018-03-26T08:40:27.239Z,48.13
2018-03-26T08:42:54.676Z,49.33
2018-03-26T08:45:22.225Z,53.67
2018-03-26T08:47:49.651Z,52.00
2018-03-26T08:50:17.277Z,56.00
2018-03-26T08:52:44.668Z,55.00
2018-03-26T08:55:12.130Z,51.40
2018-03-26T08:57:39.589Z,51.80
2018-03-26T09:00:07.263Z,47.23
2018-03-26T09:02:34.785Z,51.70
2018-03-26T09:05:02.233Z,58.30
2018-03-26T09:07:29.757Z,54.47
2018-03-26T09:09:57.262Z,54.80
2018-03-26T09:12:25.395Z,56.30
2018-03-26T09:14:52.908Z,54.53
2018-03-26T09:17:20.374Z,58.70
2018-03-26T09:19:48.185Z,53.07
2018-03-26T09:22:15.664Z,51.40
2018-03-26T09:24:43.112Z,48.53
2018-03-26T09:27:10.584Z,49.73
2018-03-26T09:29:38.081Z,52.33
2018-03-26T09:32:05.837Z,50.80
2018-03-26T09:34:33.369Z,48.43
2018-03-26T09:37:00.810Z,50.77
2018-03-26T09:39:28.282Z,59.10
2018-03-26T09:41:55.810Z,52.17
2018-03-26T09:44:23.382Z,56.60
2018-03-26T09:46:50.844Z,51.13
2018-03-26T09:49:18.303Z,51.60
2018-03-26T09:51:45.805Z,54.13
2018-03-26T09:54:13.267Z,53.23
2018-03-26T09:56:40.707Z,54.57
2018-03-26T09:59:08.295Z,53.73
2018-03-26T10:01:41.621Z,53.20
2018-03-26T10:04:09.091Z,58.70
2018-03-26T10:06:36.664Z,58.60
2018-03-26T10:09:04.894Z,54.03
2018-03-26T10:11:33.063Z,57.90
2018-03-26T10:14:00.592Z,54.00
2018-03-26T10:16:28.129Z,50.87
2018-03-26T10:18:55.568Z,51.83
2018-03-26T10:21:23.161Z,56.80
2018-03-26T10:23:50.698Z,54.17
2018-03-26T10:26:18.270Z,61.90
2018-03-26T10:28:45.710Z,56.20
2018-03-26T10:31:13.237Z,61.50
2018-03-26T10:33:40.598Z,59.50
2018-03-26T10:36:08.067Z,50.20
2018-03-26T10:38:35.516Z,56.43
2018-03-26T10:41:02.945Z,58.23
2018-03-26T10:43:30.424Z,54.73
2018-03-26T10:45:57.956Z,55.03
2018-03-26T10:48:25.390Z,55.20
2018-03-26T10:50:52.890Z,56.93
2018-03-26T10:53:20.428Z,55.43
2018-03-26T10:55:47.853Z,57.60
2018-03-26T10:58:15.329Z,57.57
2018-03-26T11:00:42.855Z,55.50
2018-03-26T11:03:10.316Z,52.53
2018-03-26T11:05:37.778Z,51.53
2018-03-26T11:08:05.242Z,56.30
2018-03-26T11:10:32.715Z,50.60
2018-03-26T11:13:00.134Z,53.90
2018-03-26T11:15:27.695Z,57.87
2018-03-26T11:17:55.179Z,58.63
2018-03-26T11:20:22.649Z,57.67
2018-03-26T11:22:50.113Z,52.87
2018-03-26T11:25:17.666Z,51.90
2018-03-26T11:27:45.135Z,58.30
2018-03-26T11:30:13.058Z,52.00
2018-03-26T11:32:40.573Z,63.80
2018-03-26T11:35:08.290Z,52.00
2018-03-26T11:37:35.792Z,52.60
2018-03-26T11:40:03.382Z,53.23
2018-03-26T11:42:30.924Z,61.80
2018-03-26T11:44:58.429Z,55.97
2018-03-26T11:47:26.085Z,51.63
2018-03-26T11:49:53.527Z,55.37
2018-03-26T11:52:21.589Z,53.90
2018-03-26T11:54:49.330Z,52.83
2018-03-26T11:57:16.814Z,53.60
2018-03-26T11:59:44.288Z,53.87
2018-03-26T12:02:11.889Z,49.80
2018-03-26T12:04:39.405Z,54.87
2018-03-26T12:07:06.884Z,52.40
2018-03-26T12:09:34.365Z,51.80
2018-03-26T12:12:01.910Z,47.90
2018-03-26T12:14:29.447Z,47.47
2018-03-26T12:16:56.897Z,53.00
2018-03-26T12:19:25.336Z,50.00
2018-03-26T12:21:52.809Z,45.27
2018-03-26T12:24:32.175Z,56.20
2018-03-26T12:26:59.628Z,48.57
2018-03-26T12:29:39.190Z,49.57
2018-03-26T12:32:06.994Z,42.27
2018-03-26T12:34:46.346Z,47.37
2018-03-26T12:37:13.803Z,44.60
2018-03-26T12:39:41.279Z,50.63
2018-03-26T12:42:08.767Z,47.63
2018-03-26T12:44:48.207Z,48.97
2018-03-26T12:47:15.648Z,48.60
2018-03-26T12:49:43.124Z,49.33
2018-03-26T12:52:22.378Z,44.40
2018-03-26T12:54:49.894Z,46.57
2018-03-26T13:00:17.729Z,40.23
2018-03-26T13:02:45.474Z,42.57
2018-03-26T13:05:12.961Z,41.40
2018-03-26T13:07:40.521Z,45.33
2018-03-26T13:10:07.999Z,43.00
2018-03-26T13:12:36.051Z,42.93
2018-03-26T13:15:03.670Z,40.10
2018-03-26T13:17:31.273Z,42.23
2018-03-26T13:19:58.889Z,40.33
2018-03-26T13:22:26.440Z,42.30
2018-03-26T13:24:54.481Z,43.40
2018-03-26T13:27:21.975Z,41.80
2018-03-26T13:29:49.451Z,43.17
2018-03-26T13:32:16.946Z,44.50
2018-03-26T13:34:44.414Z,46.80
2018-03-26T13:37:11.891Z,51.77
2018-03-26T13:39:39.348Z,48.40
2018-03-26T13:42:07.284Z,43.33
2018-03-26T13:44:34.753Z,44.70
2018-03-26T13:47:02.259Z,50.73
2018-03-26T13:49:29.857Z,50.23
2018-03-26T13:51:57.332Z,47.33
2018-03-26T13:54:24.819Z,42.57
2018-03-26T13:56:52.753Z,51.03
2018-03-26T13:59:20.302Z,43.30
2018-03-26T14:01:47.732Z,43.17
2018-03-26T14:04:15.532Z,49.63
2018-03-26T14:06:42.959Z,48.17
2018-03-26T14:09:22.064Z,49.20
2018-03-26T14:12:01.352Z,44.43
2018-03-26T14:14:40.717Z,41.57
2018-03-26T14:17:19.699Z,46.07
2018-03-26T14:19:47.176Z,47.53
2018-03-26T14:22:14.641Z,57.13
2018-03-26T14:24:42.112Z,54.07
2018-03-26T14:27:09.548Z,48.67
2018-03-26T14:29:37.038Z,50.03
2018-03-26T14:32:04.472Z,49.43
2018-03-26T14:34:32.037Z,47.87
2018-03-26T14:37:00.094Z,51.03
2018-03-26T14:39:27.554Z,54.10
2018-03-26T14:41:55.083Z,56.03
2018-03-26T14:44:22.657Z,54.80
2018-03-26T14:46:50.393Z,53.93
2018-03-26T14:49:17.910Z,64.27
2018-03-26T14:51:45.531Z,56.83
2018-03-26T14:54:12.986Z,57.57
2018-03-26T14:56:40.434Z,58.83
2018-03-26T14:59:07.926Z,55.97
2018-03-26T15:01:35.372Z,53.77
2018-03-26T15:04:02.834Z,51.63
2018-03-26T15:06:30.265Z,54.47
2018-03-26T15:08:57.780Z,64.40
2018-03-26T15:11:25.221Z,56.43
2018-03-26T15:13:52.683Z,59.57
